sensor_id;sensor_type;location;lat;lon;timestamp;P1;durP1;ratioP1;P2;durP2;ratioP2
51987;SDS011;38003;52.012;4.346;2022-10-31T00:02:14;2.43;;;1.60;;
51987;SDS011;38003;52.012;4.346;2022-10-31T00:04:42;1.90;;;1.33;;
51987;SDS011;38003;52.012;4.346;2022-10-31T00:07:09;2.43;;;1.50;;
51987;SDS011;38003;52.012;4.346;2022-10-31T00:09:37;2.63;;;1.60;;
51987;SDS011;38003;52.012;4.346;2022-10-31T00:12:05;4.07;;;1.70;;
51987;SDS011;38003;52.012;4.346;2022-10-31T00:14:33;3.53;;;1.60;;
51987;SDS011;38003;52.012;4.346;2022-10-31T00:17:00;2.80;;;1.50;;
51987;SDS011;38003;52.012;4.346;2022-10-31T00:19:30;2.97;;;1.70;;
51987;SDS011;38003;52.012;4.346;2022-10-31T00:21:58;2.20;;;1.57;;
51987;SDS011;38003;52.012;4.346;2022-10-31T00:24:25;3.40;;;2.00;;
51987;SDS011;38003;52.012;4.346;2022-10-31T00:26:53;3.20;;;1.90;;
51987;SDS011;38003;52.012;4.346;2022-10-31T00:29:21;2.57;;;1.70;;
51987;SDS011;38003;52.012;4.346;2022-10-31T00:31:49;2.60;;;2.10;;
51987;SDS011;38003;52.012;4.346;2022-10-31T00:34:17;3.10;;;2.17;;
51987;SDS011;38003;52.012;4.346;2022-10-31T00:36:46;3.17;;;2.23;;
51987;SDS011;38003;52.012;4.346;2022-10-31T00:39:14;3.73;;;2.03;;
51987;SDS011;38003;52.012;4.346;2022-10-31T00:41:41;2.17;;;1.77;;
51987;SDS011;38003;52.012;4.346;2022-10-31T00:44:09;2.73;;;1.83;;
51987;SDS011;38003;52.012;4.346;2022-10-31T00:46:37;2.70;;;2.27;;
51987;SDS011;38003;52.012;4.346;2022-10-31T00:49:05;4.80;;;2.80;;
51987;SDS011;38003;52.012;4.346;2022-10-31T00:51:32;3.03;;;2.47;;
51987;SDS011;38003;52.012;4.346;2022-10-31T00:54:02;4.73;;;2.70;;
51987;SDS011;38003;52.012;4.346;2022-10-31T00:56:29;4.27;;;2.50;;
51987;SDS011;38003;52.012;4.346;2022-10-31T00:58:57;3.83;;;2.50;;
51987;SDS011;38003;52.012;4.346;2022-10-31T01:01:25;4.73;;;2.60;;
51987;SDS011;38003;52.012;4.346;2022-10-31T01:03:53;4.07;;;2.50;;
51987;SDS011;38003;52.012;4.346;2022-10-31T01:06:21;5.60;;;3.03;;
51987;SDS011;38003;52.012;4.346;2022-10-31T01:08:49;3.93;;;2.30;;
51987;SDS011;38003;52.012;4.346;2022-10-31T01:11:18;3.63;;;2.60;;
51987;SDS011;38003;52.012;4.346;2022-10-31T01:13:49;3.20;;;2.50;;
51987;SDS011;38003;52.012;4.346;2022-10-31T01:16:18;6.90;;;2.60;;
51987;SDS011;38003;52.012;4.346;2022-10-31T01:18:47;5.60;;;3.20;;
51987;SDS011;38003;52.012;4.346;2022-10-31T01:21:16;2.90;;;2.60;;
51987;SDS011;38003;52.012;4.346;2022-10-31T01:23:45;3.87;;;2.67;;
51987;SDS011;38003;52.012;4.346;2022-10-31T01:26:13;3.83;;;2.77;;
51987;SDS011;38003;52.012;4.346;2022-10-31T01:28:45;3.47;;;2.70;;
51987;SDS011;38003;52.012;4.346;2022-10-31T01:31:15;3.60;;;2.53;;
51987;SDS011;38003;52.012;4.346;2022-10-31T01:33:44;4.90;;;2.87;;
51987;SDS011;38003;52.012;4.346;2022-10-31T01:36:13;2.87;;;2.50;;
51987;SDS011;38003;52.012;4.346;2022-10-31T01:38:44;3.63;;;2.80;;
51987;SDS011;38003;52.012;4.346;2022-10-31T01:41:13;4.27;;;2.50;;
51987;SDS011;38003;52.012;4.346;2022-10-31T01:43:48;3.17;;;2.40;;
51987;SDS011;38003;52.012;4.346;2022-10-31T01:46:19;4.13;;;2.90;;
51987;SDS011;38003;52.012;4.346;2022-10-31T01:48:49;3.37;;;2.77;;
51987;SDS011;38003;52.012;4.346;2022-10-31T01:51:18;3.73;;;2.80;;
51987;SDS011;38003;52.012;4.346;2022-10-31T01:53:48;4.17;;;2.87;;
51987;SDS011;38003;52.012;4.346;2022-10-31T01:56:20;4.10;;;3.03;;
51987;SDS011;38003;52.012;4.346;2022-10-31T01:58:50;3.60;;;2.80;;
51987;SDS011;38003;52.012;4.346;2022-10-31T02:01:18;3.47;;;2.93;;
51987;SDS011;38003;52.012;4.346;2022-10-31T02:03:46;5.70;;;3.20;;
51987;SDS011;38003;52.012;4.346;2022-10-31T02:06:19;4.03;;;2.90;;
51987;SDS011;38003;52.012;4.346;2022-10-31T02:08:54;5.80;;;3.30;;
51987;SDS011;38003;52.012;4.346;2022-10-31T02:11:24;4.97;;;3.40;;
51987;SDS011;38003;52.012;4.346;2022-10-31T02:13:54;5.27;;;3.40;;
51987;SDS011;38003;52.012;4.346;2022-10-31T02:16:22;5.37;;;3.87;;
51987;SDS011;38003;52.012;4.346;2022-10-31T02:18:50;5.60;;;3.63;;
51987;SDS011;38003;52.012;4.346;2022-10-31T02:21:19;4.03;;;3.23;;
51987;SDS011;38003;52.012;4.346;2022-10-31T02:24:00;4.80;;;3.53;;
51987;SDS011;38003;52.012;4.346;2022-10-31T02:26:52;4.13;;;3.70;;
51987;SDS011;38003;52.012;4.346;2022-10-31T02:32:27;4.43;;;3.63;;
51987;SDS011;38003;52.012;4.346;2022-10-31T02:35:03;4.60;;;3.97;;
51987;SDS011;38003;52.012;4.346;2022-10-31T02:37:37;4.80;;;4.00;;
51987;SDS011;38003;52.012;4.346;2022-10-31T02:40:15;4.73;;;3.87;;
51987;SDS011;38003;52.012;4.346;2022-10-31T02:42:49;4.37;;;3.90;;
51987;SDS011;38003;52.012;4.346;2022-10-31T02:45:25;7.00;;;4.60;;
51987;SDS011;38003;52.012;4.346;2022-10-31T02:47:58;5.23;;;4.27;;
51987;SDS011;38003;52.012;4.346;2022-10-31T02:50:30;4.87;;;4.30;;
51987;SDS011;38003;52.012;4.346;2022-10-31T02:53:01;8.43;;;4.30;;
51987;SDS011;38003;52.012;4.346;2022-10-31T02:55:44;6.27;;;4.13;;
51987;SDS011;38003;52.012;4.346;2022-10-31T02:58:21;4.50;;;4.10;;
51987;SDS011;38003;52.012;4.346;2022-10-31T03:00:56;5.97;;;4.27;;
51987;SDS011;38003;52.012;4.346;2022-10-31T03:04:00;4.90;;;4.37;;
51987;SDS011;38003;52.012;4.346;2022-10-31T03:06:39;4.87;;;4.33;;
51987;SDS011;38003;52.012;4.346;2022-10-31T03:09:12;5.80;;;4.40;;
51987;SDS011;38003;52.012;4.346;2022-10-31T03:11:51;6.27;;;4.43;;
51987;SDS011;38003;52.012;4.346;2022-10-31T03:14:26;5.33;;;4.30;;
51987;SDS011;38003;52.012;4.346;2022-10-31T03:16:59;6.63;;;4.80;;
51987;SDS011;38003;52.012;4.346;2022-10-31T03:19:35;5.93;;;5.20;;
51987;SDS011;38003;52.012;4.346;2022-10-31T03:22:07;5.87;;;5.33;;
51987;SDS011;38003;52.012;4.346;2022-10-31T03:24:42;6.77;;;4.97;;
51987;SDS011;38003;52.012;4.346;2022-10-31T03:27:12;6.20;;;5.20;;
51987;SDS011;38003;52.012;4.346;2022-10-31T03:29:44;7.57;;;5.10;;
51987;SDS011;38003;52.012;4.346;2022-10-31T03:32:15;5.83;;;5.20;;
51987;SDS011;38003;52.012;4.346;2022-10-31T03:34:47;6.63;;;5.43;;
51987;SDS011;38003;52.012;4.346;2022-10-31T03:37:18;5.67;;;5.03;;
51987;SDS011;38003;52.012;4.346;2022-10-31T03:39:48;9.07;;;5.37;;
51987;SDS011;38003;52.012;4.346;2022-10-31T03:42:18;6.50;;;5.43;;
51987;SDS011;38003;52.012;4.346;2022-10-31T03:44:52;6.00;;;5.23;;
51987;SDS011;38003;52.012;4.346;2022-10-31T03:47:25;9.13;;;5.37;;
51987;SDS011;38003;52.012;4.346;2022-10-31T03:49:54;7.17;;;6.33;;
51987;SDS011;38003;52.012;4.346;2022-10-31T03:52:23;7.67;;;5.40;;
51987;SDS011;38003;52.012;4.346;2022-10-31T03:54:54;8.53;;;5.50;;
51987;SDS011;38003;52.012;4.346;2022-10-31T03:57:27;6.30;;;5.57;;
51987;SDS011;38003;52.012;4.346;2022-10-31T04:00:02;8.43;;;5.93;;
51987;SDS011;38003;52.012;4.346;2022-10-31T04:02:32;9.57;;;6.33;;
51987;SDS011;38003;52.012;4.346;2022-10-31T04:05:06;9.00;;;6.73;;
51987;SDS011;38003;52.012;4.346;2022-10-31T04:07:39;8.53;;;7.37;;
51987;SDS011;38003;52.012;4.346;2022-10-31T04:10:11;10.03;;;6.60;;
51987;SDS011;38003;52.012;4.346;2022-10-31T04:12:41;8.80;;;6.70;;
51987;SDS011;38003;52.012;4.346;2022-10-31T04:15:13;9.77;;;6.80;;
51987;SDS011;38003;52.012;4.346;2022-10-31T04:17:41;10.10;;;7.03;;
51987;SDS011;38003;52.012;4.346;2022-10-31T04:20:16;8.90;;;7.33;;
51987;SDS011;38003;52.012;4.346;2022-10-31T04:22:44;12.60;;;7.67;;
51987;SDS011;38003;52.012;4.346;2022-10-31T04:25:12;8.77;;;7.87;;
51987;SDS011;38003;52.012;4.346;2022-10-31T04:27:40;7.97;;;7.13;;
51987;SDS011;38003;52.012;4.346;2022-10-31T04:30:08;8.07;;;7.33;;
51987;SDS011;38003;52.012;4.346;2022-10-31T04:32:36;9.20;;;8.30;;
51987;SDS011;38003;52.012;4.346;2022-10-31T04:35:04;9.37;;;8.37;;
51987;SDS011;38003;52.012;4.346;2022-10-31T04:37:34;10.53;;;8.53;;
51987;SDS011;38003;52.012;4.346;2022-10-31T04:40:02;12.53;;;9.90;;
51987;SDS011;38003;52.012;4.346;2022-10-31T04:42:31;10.53;;;8.60;;
51987;SDS011;38003;52.012;4.346;2022-10-31T04:44:59;10.10;;;8.50;;
51987;SDS011;38003;52.012;4.346;2022-10-31T04:47:26;9.07;;;8.10;;
51987;SDS011;38003;52.012;4.346;2022-10-31T04:49:56;10.87;;;8.77;;
51987;SDS011;38003;52.012;4.346;2022-10-31T04:52:24;11.97;;;9.00;;
51987;SDS011;38003;52.012;4.346;2022-10-31T04:54:53;10.40;;;8.40;;
51987;SDS011;38003;52.012;4.346;2022-10-31T04:57:21;11.83;;;9.20;;
51987;SDS011;38003;52.012;4.346;2022-10-31T04:59:49;11.73;;;9.20;;
51987;SDS011;38003;52.012;4.346;2022-10-31T05:02:17;11.80;;;9.17;;
51987;SDS011;38003;52.012;4.346;2022-10-31T05:04:44;10.93;;;9.70;;
51987;SDS011;38003;52.012;4.346;2022-10-31T05:07:12;13.10;;;10.90;;
51987;SDS011;38003;52.012;4.346;2022-10-31T05:09:40;12.10;;;9.73;;
51987;SDS011;38003;52.012;4.346;2022-10-31T05:12:09;10.33;;;9.20;;
51987;SDS011;38003;52.012;4.346;2022-10-31T05:14:37;15.43;;;9.80;;
51987;SDS011;38003;52.012;4.346;2022-10-31T05:17:08;12.87;;;9.57;;
51987;SDS011;38003;52.012;4.346;2022-10-31T05:19:36;11.80;;;10.20;;
51987;SDS011;38003;52.012;4.346;2022-10-31T05:22:04;14.00;;;10.20;;
51987;SDS011;38003;52.012;4.346;2022-10-31T05:24:31;12.73;;;10.67;;
51987;SDS011;38003;52.012;4.346;2022-10-31T05:26:59;13.80;;;10.53;;
51987;SDS011;38003;52.012;4.346;2022-10-31T05:29:28;15.53;;;10.40;;
51987;SDS011;38003;52.012;4.346;2022-10-31T05:31:59;10.80;;;9.47;;
51987;SDS011;38003;52.012;4.346;2022-10-31T05:34:27;12.57;;;10.07;;
51987;SDS011;38003;52.012;4.346;2022-10-31T05:36:56;15.17;;;10.83;;
51987;SDS011;38003;52.012;4.346;2022-10-31T05:39:24;11.60;;;10.40;;
51987;SDS011;38003;52.012;4.346;2022-10-31T05:41:52;11.37;;;10.17;;
51987;SDS011;38003;52.012;4.346;2022-10-31T05:44:20;14.40;;;10.20;;
51987;SDS011;38003;52.012;4.346;2022-10-31T05:46:49;12.87;;;10.40;;
51987;SDS011;38003;52.012;4.346;2022-10-31T05:49:17;11.20;;;10.00;;
51987;SDS011;38003;52.012;4.346;2022-10-31T05:51:44;13.00;;;10.23;;
51987;SDS011;38003;52.012;4.346;2022-10-31T05:54:12;13.47;;;10.80;;
51987;SDS011;38003;52.012;4.346;2022-10-31T05:56:41;12.90;;;10.03;;
51987;SDS011;38003;52.012;4.346;2022-10-31T05:59:09;11.87;;;10.50;;
51987;SDS011;38003;52.012;4.346;2022-10-31T06:01:36;16.33;;;10.30;;
51987;SDS011;38003;52.012;4.346;2022-10-31T06:04:06;12.07;;;10.73;;
51987;SDS011;38003;52.012;4.346;2022-10-31T06:06:34;14.47;;;10.33;;
51987;SDS011;38003;52.012;4.346;2022-10-31T06:09:02;12.77;;;10.67;;
51987;SDS011;38003;52.012;4.346;2022-10-31T06:11:29;14.03;;;11.03;;
51987;SDS011;38003;52.012;4.346;2022-10-31T06:13:57;12.30;;;10.73;;
51987;SDS011;38003;52.012;4.346;2022-10-31T06:16:25;12.50;;;10.97;;
51987;SDS011;38003;52.012;4.346;2022-10-31T06:18:53;14.07;;;11.17;;
51987;SDS011;38003;52.012;4.346;2022-10-31T06:21:22;15.30;;;11.07;;
51987;SDS011;38003;52.012;4.346;2022-10-31T06:23:50;13.40;;;10.87;;
51987;SDS011;38003;52.012;4.346;2022-10-31T06:26:18;14.97;;;10.50;;
51987;SDS011;38003;52.012;4.346;2022-10-31T06:28:46;12.40;;;10.70;;
51987;SDS011;38003;52.012;4.346;2022-10-31T06:31:13;12.13;;;10.67;;
51987;SDS011;38003;52.012;4.346;2022-10-31T06:33:41;13.63;;;11.13;;
51987;SDS011;38003;52.012;4.346;2022-10-31T06:36:09;14.00;;;10.97;;
51987;SDS011;38003;52.012;4.346;2022-10-31T06:38:39;18.43;;;11.10;;
51987;SDS011;38003;52.012;4.346;2022-10-31T06:41:07;14.80;;;11.07;;
51987;SDS011;38003;52.012;4.346;2022-10-31T06:43:34;16.57;;;11.57;;
51987;SDS011;38003;52.012;4.346;2022-10-31T06:46:02;13.13;;;10.57;;
51987;SDS011;38003;52.012;4.346;2022-10-31T06:48:31;15.33;;;11.13;;
51987;SDS011;38003;52.012;4.346;2022-10-31T06:50:59;14.63;;;11.07;;
51987;SDS011;38003;52.012;4.346;2022-10-31T06:53:28;15.33;;;11.20;;
51987;SDS011;38003;52.012;4.346;2022-10-31T06:55:58;16.97;;;11.00;;
51987;SDS011;38003;52.012;4.346;2022-10-31T06:58:25;13.97;;;10.87;;
51987;SDS011;38003;52.012;4.346;2022-10-31T07:00:53;13.43;;;11.53;;
51987;SDS011;38003;52.012;4.346;2022-10-31T07:03:21;14.83;;;12.43;;
51987;SDS011;38003;52.012;4.346;2022-10-31T07:05:49;18.20;;;12.23;;
51987;SDS011;38003;52.012;4.346;2022-10-31T07:08:17;21.77;;;11.83;;
51987;SDS011;38003;52.012;4.346;2022-10-31T07:10:50;17.70;;;12.87;;
51987;SDS011;38003;52.012;4.346;2022-10-31T07:13:20;30.13;;;13.67;;
51987;SDS011;38003;52.012;4.346;2022-10-31T07:15:51;17.93;;;12.47;;
51987;SDS011;38003;52.012;4.346;2022-10-31T07:18:20;18.43;;;13.37;;
51987;SDS011;38003;52.012;4.346;2022-10-31T07:20:48;15.30;;;13.30;;
51987;SDS011;38003;52.012;4.346;2022-10-31T07:23:16;14.70;;;13.00;;
51987;SDS011;38003;52.012;4.346;2022-10-31T07:25:44;15.93;;;13.13;;
51987;SDS011;38003;52.012;4.346;2022-10-31T07:28:12;17.57;;;13.63;;
51987;SDS011;38003;52.012;4.346;2022-10-31T07:30:41;16.40;;;13.07;;
51987;SDS011;38003;52.012;4.346;2022-10-31T07:33:09;15.40;;;13.23;;
51987;SDS011;38003;52.012;4.346;2022-10-31T07:35:37;16.07;;;13.40;;
51987;SDS011;38003;52.012;4.346;2022-10-31T07:38:07;19.80;;;13.57;;
51987;SDS011;38003;52.012;4.346;2022-10-31T07:40:36;17.17;;;13.10;;
51987;SDS011;38003;52.012;4.346;2022-10-31T07:43:04;19.70;;;14.40;;
51987;SDS011;38003;52.012;4.346;2022-10-31T07:45:38;17.33;;;13.63;;
51987;SDS011;38003;52.012;4.346;2022-10-31T07:48:07;19.77;;;14.07;;
51987;SDS011;38003;52.012;4.346;2022-10-31T07:50:35;19.03;;;14.53;;
51987;SDS011;38003;52.012;4.346;2022-10-31T07:53:03;17.83;;;14.03;;
51987;SDS011;38003;52.012;4.346;2022-10-31T07:55:35;18.53;;;15.10;;
51987;SDS011;38003;52.012;4.346;2022-10-31T07:58:04;16.77;;;14.93;;
51987;SDS011;38003;52.012;4.346;2022-10-31T08:00:33;21.37;;;15.00;;
51987;SDS011;38003;52.012;4.346;2022-10-31T08:03:03;18.57;;;14.33;;
51987;SDS011;38003;52.012;4.346;2022-10-31T08:05:33;19.00;;;14.97;;
51987;SDS011;38003;52.012;4.346;2022-10-31T08:08:01;23.03;;;15.33;;
51987;SDS011;38003;52.012;4.346;2022-10-31T08:10:30;18.37;;;15.07;;
51987;SDS011;38003;52.012;4.346;2022-10-31T08:12:58;17.67;;;14.67;;
51987;SDS011;38003;52.012;4.346;2022-10-31T08:15:28;22.30;;;15.47;;
51987;SDS011;38003;52.012;4.346;2022-10-31T08:17:55;16.90;;;14.80;;
51987;SDS011;38003;52.012;4.346;2022-10-31T08:20:24;18.93;;;14.43;;
51987;SDS011;38003;52.012;4.346;2022-10-31T08:22:57;17.63;;;13.87;;
51987;SDS011;38003;52.012;4.346;2022-10-31T08:25:26;22.60;;;14.53;;
51987;SDS011;38003;52.012;4.346;2022-10-31T08:28:02;21.60;;;15.10;;
51987;SDS011;38003;52.012;4.346;2022-10-31T08:30:32;21.93;;;15.57;;
51987;SDS011;38003;52.012;4.346;2022-10-31T08:33:01;18.30;;;14.40;;
51987;SDS011;38003;52.012;4.346;2022-10-31T08:35:30;20.80;;;15.17;;
51987;SDS011;38003;52.012;4.346;2022-10-31T08:38:00;20.77;;;15.30;;
51987;SDS011;38003;52.012;4.346;2022-10-31T08:40:30;22.43;;;15.33;;
51987;SDS011;38003;52.012;4.346;2022-10-31T08:42:59;21.13;;;16.97;;
51987;SDS011;38003;52.012;4.346;2022-10-31T08:45:28;21.93;;;16.10;;
51987;SDS011;38003;52.012;4.346;2022-10-31T08:47:57;24.50;;;16.07;;
51987;SDS011;38003;52.012;4.346;2022-10-31T08:50:26;21.00;;;17.03;;
51987;SDS011;38003;52.012;4.346;2022-10-31T08:53:00;24.33;;;16.50;;
51987;SDS011;38003;52.012;4.346;2022-10-31T08:55:32;22.60;;;17.00;;
51987;SDS011;38003;52.012;4.346;2022-10-31T08:58:01;21.67;;;15.83;;
51987;SDS011;38003;52.012;4.346;2022-10-31T09:00:30;25.20;;;15.83;;
51987;SDS011;38003;52.012;4.346;2022-10-31T09:02:58;23.17;;;16.40;;
51987;SDS011;38003;52.012;4.346;2022-10-31T09:05:27;24.87;;;16.70;;
51987;SDS011;38003;52.012;4.346;2022-10-31T09:07:55;23.03;;;16.67;;
51987;SDS011;38003;52.012;4.346;2022-10-31T09:10:26;28.63;;;17.17;;
51987;SDS011;38003;52.012;4.346;2022-10-31T09:12:55;24.93;;;16.77;;
51987;SDS011;38003;52.012;4.346;2022-10-31T09:15:24;26.47;;;16.57;;
51987;SDS011;38003;52.012;4.346;2022-10-31T09:17:52;23.47;;;16.33;;
51987;SDS011;38003;52.012;4.346;2022-10-31T09:20:20;25.77;;;16.97;;
51987;SDS011;38003;52.012;4.346;2022-10-31T09:22:54;41.43;;;17.17;;
51987;SDS011;38003;52.012;4.346;2022-10-31T09:25:23;24.67;;;16.07;;
51987;SDS011;38003;52.012;4.346;2022-10-31T09:27:54;22.07;;;15.07;;
51987;SDS011;38003;52.012;4.346;2022-10-31T09:30:24;23.40;;;15.00;;
51987;SDS011;38003;52.012;4.346;2022-10-31T09:32:54;21.40;;;14.33;;
51987;SDS011;38003;52.012;4.346;2022-10-31T09:35:22;25.33;;;16.27;;
51987;SDS011;38003;52.012;4.346;2022-10-31T09:37:54;17.57;;;12.80;;
51987;SDS011;38003;52.012;4.346;2022-10-31T09:40:23;21.23;;;13.57;;
51987;SDS011;38003;52.012;4.346;2022-10-31T09:42:59;20.27;;;12.30;;
51987;SDS011;38003;52.012;4.346;2022-10-31T09:45:35;19.13;;;12.47;;
51987;SDS011;38003;52.012;4.346;2022-10-31T09:48:14;18.03;;;12.50;;
51987;SDS011;38003;52.012;4.346;2022-10-31T09:50:52;20.60;;;12.30;;
51987;SDS011;38003;52.012;4.346;2022-10-31T09:53:25;15.17;;;12.03;;
51987;SDS011;38003;52.012;4.346;2022-10-31T09:56:01;16.63;;;12.13;;
51987;SDS011;38003;52.012;4.346;2022-10-31T09:58:34;17.47;;;11.57;;
51987;SDS011;38003;52.012;4.346;2022-10-31T10:01:14;17.43;;;12.17;;
51987;SDS011;38003;52.012;4.346;2022-10-31T10:03:53;14.93;;;11.50;;
51987;SDS011;38003;52.012;4.346;2022-10-31T10:06:25;14.30;;;10.53;;
51987;SDS011;38003;52.012;4.346;2022-10-31T10:08:56;19.00;;;11.73;;
51987;SDS011;38003;52.012;4.346;2022-10-31T10:11:28;19.77;;;11.40;;
51987;SDS011;38003;52.012;4.346;2022-10-31T10:14:15;16.53;;;11.57;;
51987;SDS011;38003;52.012;4.346;2022-10-31T10:16:57;14.70;;;10.43;;
51987;SDS011;38003;52.012;4.346;2022-10-31T10:19:40;17.90;;;10.87;;
51987;SDS011;38003;52.012;4.346;2022-10-31T10:22:23;15.30;;;11.83;;
51987;SDS011;38003;52.012;4.346;2022-10-31T10:25:01;17.20;;;10.47;;
51987;SDS011;38003;52.012;4.346;2022-10-31T10:27:42;18.50;;;11.10;;
51987;SDS011;38003;52.012;4.346;2022-10-31T10:30:27;14.83;;;10.77;;
51987;SDS011;38003;52.012;4.346;2022-10-31T10:33:02;15.17;;;10.60;;
51987;SDS011;38003;52.012;4.346;2022-10-31T10:35:36;16.47;;;10.93;;
51987;SDS011;38003;52.012;4.346;2022-10-31T10:38:12;13.63;;;10.23;;
51987;SDS011;38003;52.012;4.346;2022-10-31T10:40:47;14.53;;;10.60;;
51987;SDS011;38003;52.012;4.346;2022-10-31T10:43:20;13.37;;;9.83;;
51987;SDS011;38003;52.012;4.346;2022-10-31T10:45:52;13.13;;;9.07;;
51987;SDS011;38003;52.012;4.346;2022-10-31T10:48:46;17.33;;;9.57;;
51987;SDS011;38003;52.012;4.346;2022-10-31T10:51:21;12.33;;;9.27;;
51987;SDS011;38003;52.012;4.346;2022-10-31T10:54:14;15.57;;;10.47;;
51987;SDS011;38003;52.012;4.346;2022-10-31T10:57:00;21.60;;;9.50;;
51987;SDS011;38003;52.012;4.346;2022-10-31T10:59:37;11.60;;;9.57;;
51987;SDS011;38003;52.012;4.346;2022-10-31T11:02:15;15.13;;;9.50;;
51987;SDS011;38003;52.012;4.346;2022-10-31T11:04:45;15.17;;;9.27;;
51987;SDS011;38003;52.012;4.346;2022-10-31T11:07:16;13.00;;;8.93;;
51987;SDS011;38003;52.012;4.346;2022-10-31T11:09:44;12.97;;;9.10;;
51987;SDS011;38003;52.012;4.346;2022-10-31T11:12:17;13.70;;;8.93;;
51987;SDS011;38003;52.012;4.346;2022-10-31T11:14:50;11.03;;;8.37;;
51987;SDS011;38003;52.012;4.346;2022-10-31T11:17:22;11.90;;;7.80;;
51987;SDS011;38003;52.012;4.346;2022-10-31T11:20:04;12.37;;;7.53;;
51987;SDS011;38003;52.012;4.346;2022-10-31T11:22:48;14.43;;;8.10;;
51987;SDS011;38003;52.012;4.346;2022-10-31T11:25:22;15.80;;;9.33;;
51987;SDS011;38003;52.012;4.346;2022-10-31T11:27:58;14.33;;;9.37;;
51987;SDS011;38003;52.012;4.346;2022-10-31T11:30:27;18.27;;;11.57;;
51987;SDS011;38003;52.012;4.346;2022-10-31T11:32:56;16.63;;;11.10;;
51987;SDS011;38003;52.012;4.346;2022-10-31T11:35:26;18.20;;;11.67;;
51987;SDS011;38003;52.012;4.346;2022-10-31T11:37:54;18.87;;;13.07;;
51987;SDS011;38003;52.012;4.346;2022-10-31T11:40:26;23.83;;;13.40;;
51987;SDS011;38003;52.012;4.346;2022-10-31T11:42:54;21.97;;;14.07;;
51987;SDS011;38003;52.012;4.346;2022-10-31T11:45:27;29.60;;;16.33;;
51987;SDS011;38003;52.012;4.346;2022-10-31T11:48:00;26.00;;;16.47;;
51987;SDS011;38003;52.012;4.346;2022-10-31T11:50:31;24.37;;;17.13;;
51987;SDS011;38003;52.012;4.346;2022-10-31T11:53:10;28.43;;;19.10;;
51987;SDS011;38003;52.012;4.346;2022-10-31T11:55:41;27.47;;;20.13;;
51987;SDS011;38003;52.012;4.346;2022-10-31T11:58:19;28.50;;;21.87;;
51987;SDS011;38003;52.012;4.346;2022-10-31T12:00:49;35.83;;;21.33;;
51987;SDS011;38003;52.012;4.346;2022-10-31T12:03:25;31.70;;;20.73;;
51987;SDS011;38003;52.012;4.346;2022-10-31T12:06:02;32.57;;;21.60;;
51987;SDS011;38003;52.012;4.346;2022-10-31T12:08:34;29.83;;;21.10;;
51987;SDS011;38003;52.012;4.346;2022-10-31T12:11:08;28.03;;;21.93;;
51987;SDS011;38003;52.012;4.346;2022-10-31T12:13:45;33.33;;;22.37;;
51987;SDS011;38003;52.012;4.346;2022-10-31T12:16:29;31.10;;;22.37;;
51987;SDS011;38003;52.012;4.346;2022-10-31T12:19:02;28.17;;;21.47;;
51987;SDS011;38003;52.012;4.346;2022-10-31T12:21:36;31.77;;;21.33;;
51987;SDS011;38003;52.012;4.346;2022-10-31T12:24:24;29.40;;;22.47;;
51987;SDS011;38003;52.012;4.346;2022-10-31T12:27:08;29.33;;;22.03;;
51987;SDS011;38003;52.012;4.346;2022-10-31T12:29:51;36.23;;;23.47;;
51987;SDS011;38003;52.012;4.346;2022-10-31T12:32:41;35.13;;;22.17;;
51987;SDS011;38003;52.012;4.346;2022-10-31T12:35:29;28.27;;;21.77;;
51987;SDS011;38003;52.012;4.346;2022-10-31T12:38:28;33.07;;;22.43;;
51987;SDS011;38003;52.012;4.346;2022-10-31T12:41:22;29.40;;;20.30;;
51987;SDS011;38003;52.012;4.346;2022-10-31T12:44:02;31.83;;;21.13;;
51987;SDS011;38003;52.012;4.346;2022-10-31T12:49:40;30.77;;;20.63;;
51987;SDS011;38003;52.012;4.346;2022-10-31T12:52:19;29.93;;;20.97;;
51987;SDS011;38003;52.012;4.346;2022-10-31T12:55:03;35.37;;;21.63;;
51987;SDS011;38003;52.012;4.346;2022-10-31T12:57:42;32.23;;;20.63;;
51987;SDS011;38003;52.012;4.346;2022-10-31T13:00:13;28.63;;;19.83;;
51987;SDS011;38003;52.012;4.346;2022-10-31T13:02:44;27.90;;;19.43;;
51987;SDS011;38003;52.012;4.346;2022-10-31T13:05:18;35.27;;;20.33;;
51987;SDS011;38003;52.012;4.346;2022-10-31T13:07:54;33.93;;;22.00;;
51987;SDS011;38003;52.012;4.346;2022-10-31T13:10:27;29.33;;;21.17;;
51987;SDS011;38003;52.012;4.346;2022-10-31T13:13:00;31.40;;;20.87;;
51987;SDS011;38003;52.012;4.346;2022-10-31T13:15:45;30.67;;;21.83;;
51987;SDS011;38003;52.012;4.346;2022-10-31T13:18:21;27.47;;;19.73;;
51987;SDS011;38003;52.012;4.346;2022-10-31T13:20:57;33.57;;;21.03;;
51987;SDS011;38003;52.012;4.346;2022-10-31T13:23:29;33.70;;;20.40;;
51987;SDS011;38003;52.012;4.346;2022-10-31T13:26:20;29.93;;;19.70;;
51987;SDS011;38003;52.012;4.346;2022-10-31T13:28:55;34.20;;;20.67;;
51987;SDS011;38003;52.012;4.346;2022-10-31T13:31:28;29.93;;;20.33;;
51987;SDS011;38003;52.012;4.346;2022-10-31T13:33:57;29.53;;;19.93;;
51987;SDS011;38003;52.012;4.346;2022-10-31T13:36:32;35.57;;;20.80;;
51987;SDS011;38003;52.012;4.346;2022-10-31T13:39:10;32.60;;;21.47;;
51987;SDS011;38003;52.012;4.346;2022-10-31T13:41:48;31.13;;;20.33;;
51987;SDS011;38003;52.012;4.346;2022-10-31T13:44:20;32.43;;;20.80;;
51987;SDS011;38003;52.012;4.346;2022-10-31T13:46:50;32.93;;;22.03;;
51987;SDS011;38003;52.012;4.346;2022-10-31T13:49:21;35.03;;;21.77;;
51987;SDS011;38003;52.012;4.346;2022-10-31T13:51:52;33.00;;;21.40;;
51987;SDS011;38003;52.012;4.346;2022-10-31T13:54:22;36.40;;;21.30;;
51987;SDS011;38003;52.012;4.346;2022-10-31T13:56:51;32.63;;;22.40;;
51987;SDS011;38003;52.012;4.346;2022-10-31T13:59:21;38.40;;;21.27;;
51987;SDS011;38003;52.012;4.346;2022-10-31T14:01:53;34.13;;;22.23;;
51987;SDS011;38003;52.012;4.346;2022-10-31T14:04:23;28.67;;;21.53;;
51987;SDS011;38003;52.012;4.346;2022-10-31T14:06:55;36.37;;;22.03;;
51987;SDS011;38003;52.012;4.346;2022-10-31T14:09:28;33.20;;;21.07;;
51987;SDS011;38003;52.012;4.346;2022-10-31T14:12:00;36.20;;;21.27;;
51987;SDS011;38003;52.012;4.346;2022-10-31T14:14:36;29.83;;;21.33;;
51987;SDS011;38003;52.012;4.346;2022-10-31T14:17:17;34.23;;;21.80;;
51987;SDS011;38003;52.012;4.346;2022-10-31T14:20:02;34.53;;;23.23;;
51987;SDS011;38003;52.012;4.346;2022-10-31T14:22:57;34.47;;;22.43;;
51987;SDS011;38003;52.012;4.346;2022-10-31T14:25:32;37.30;;;23.87;;
51987;SDS011;38003;52.012;4.346;2022-10-31T14:28:01;37.77;;;23.67;;
51987;SDS011;38003;52.012;4.346;2022-10-31T14:30:50;34.30;;;23.77;;
51987;SDS011;38003;52.012;4.346;2022-10-31T14:33:19;38.00;;;24.83;;
51987;SDS011;38003;52.012;4.346;2022-10-31T14:35:51;37.67;;;25.20;;
51987;SDS011;38003;52.012;4.346;2022-10-31T14:38:36;37.93;;;25.97;;
51987;SDS011;38003;52.012;4.346;2022-10-31T14:41:21;39.57;;;25.10;;
51987;SDS011;38003;52.012;4.346;2022-10-31T14:44:10;37.97;;;26.07;;
51987;SDS011;38003;52.012;4.346;2022-10-31T14:47:15;39.13;;;26.90;;
51987;SDS011;38003;52.012;4.346;2022-10-31T14:50:00;37.60;;;26.00;;
51987;SDS011;38003;52.012;4.346;2022-10-31T14:52:39;43.10;;;27.17;;
51987;SDS011;38003;52.012;4.346;2022-10-31T14:55:11;43.80;;;27.73;;
51987;SDS011;38003;52.012;4.346;2022-10-31T14:57:44;40.10;;;27.73;;
51987;SDS011;38003;52.012;4.346;2022-10-31T15:00:17;43.30;;;26.30;;
51987;SDS011;38003;52.012;4.346;2022-10-31T15:02:48;39.23;;;27.30;;
51987;SDS011;38003;52.012;4.346;2022-10-31T15:05:25;37.37;;;26.27;;
51987;SDS011;38003;52.012;4.346;2022-10-31T15:07:56;44.17;;;29.00;;